sensor_id;sensor_type;location;lat;lon;timestamp;P1;durP1;ratioP1;P2;durP2;ratioP2
70071;SDS011;57434;42.794;23.302;2023-06-26T00:00:23;27.75;;;14.75;;
70071;SDS011;57434;42.794;23.302;2023-06-26T00:01:25;29.55;;;14.57;;
70071;SDS011;57434;42.794;23.302;2023-06-26T00:02:27;25.75;;;14.80;;
70071;SDS011;57434;42.794;23.302;2023-06-26T00:03:28;29.83;;;14.88;;
70071;SDS011;57434;42.794;23.302;2023-06-26T00:04:30;25.10;;;14.15;;
70071;SDS011;57434;42.794;23.302;2023-06-26T00:05:32;29.90;;;16.27;;
70071;SDS011;57434;42.794;23.302;2023-06-26T00:06:33;28.20;;;15.20;;
70071;SDS011;57434;42.794;23.302;2023-06-26T00:07:35;28.10;;;14.55;;
70071;SDS011;57434;42.794;23.302;2023-06-26T00:08:36;27.10;;;15.70;;
70071;SDS011;57434;42.794;23.302;2023-06-26T00:09:38;27.45;;;15.05;;
70071;SDS011;57434;42.794;23.302;2023-06-26T00:10:39;29.20;;;14.90;;
70071;SDS011;57434;42.794;23.302;2023-06-26T00:11:41;29.67;;;14.77;;
70071;SDS011;57434;42.794;23.302;2023-06-26T00:12:43;32.30;;;15.23;;
70071;SDS011;57434;42.794;23.302;2023-06-26T00:13:44;29.20;;;14.88;;
70071;SDS011;57434;42.794;23.302;2023-06-26T00:14:46;28.30;;;15.23;;
70071;SDS011;57434;42.794;23.302;2023-06-26T00:15:47;26.90;;;14.50;;
70071;SDS011;57434;42.794;23.302;2023-06-26T00:16:49;28.63;;;14.95;;
70071;SDS011;57434;42.794;23.302;2023-06-26T00:17:51;28.13;;;14.05;;
70071;SDS011;57434;42.794;23.302;2023-06-26T00:18:52;26.37;;;14.07;;
70071;SDS011;57434;42.794;23.302;2023-06-26T00:19:54;28.20;;;14.73;;
70071;SDS011;57434;42.794;23.302;2023-06-26T00:20:55;29.08;;;15.05;;
70071;SDS011;57434;42.794;23.302;2023-06-26T00:21:57;29.73;;;15.30;;
70071;SDS011;57434;42.794;23.302;2023-06-26T00:22:59;30.50;;;16.27;;
70071;SDS011;57434;42.794;23.302;2023-06-26T00:24:00;29.70;;;15.00;;
70071;SDS011;57434;42.794;23.302;2023-06-26T00:25:02;29.77;;;14.73;;
70071;SDS011;57434;42.794;23.302;2023-06-26T00:26:04;29.05;;;15.02;;
70071;SDS011;57434;42.794;23.302;2023-06-26T00:27:05;32.05;;;15.20;;
70071;SDS011;57434;42.794;23.302;2023-06-26T00:28:07;29.15;;;15.02;;
70071;SDS011;57434;42.794;23.302;2023-06-26T00:29:08;31.73;;;15.33;;
70071;SDS011;57434;42.794;23.302;2023-06-26T00:30:10;28.50;;;14.52;;
70071;SDS011;57434;42.794;23.302;2023-06-26T00:31:12;29.00;;;14.45;;
70071;SDS011;57434;42.794;23.302;2023-06-26T00:32:14;32.63;;;15.48;;
70071;SDS011;57434;42.794;23.302;2023-06-26T00:33:15;30.45;;;13.75;;
70071;SDS011;57434;42.794;23.302;2023-06-26T00:34:17;31.17;;;14.30;;
70071;SDS011;57434;42.794;23.302;2023-06-26T00:35:18;26.73;;;13.75;;
70071;SDS011;57434;42.794;23.302;2023-06-26T00:36:20;27.90;;;14.52;;
70071;SDS011;57434;42.794;23.302;2023-06-26T00:37:21;28.67;;;14.63;;
70071;SDS011;57434;42.794;23.302;2023-06-26T00:38:23;32.28;;;15.13;;
70071;SDS011;57434;42.794;23.302;2023-06-26T00:39:24;28.43;;;15.17;;
70071;SDS011;57434;42.794;23.302;2023-06-26T00:40:26;29.58;;;14.52;;
70071;SDS011;57434;42.794;23.302;2023-06-26T00:41:27;29.42;;;15.73;;
70071;SDS011;57434;42.794;23.302;2023-06-26T00:42:29;26.60;;;13.90;;
70071;SDS011;57434;42.794;23.302;2023-06-26T00:43:31;28.90;;;14.85;;
70071;SDS011;57434;42.794;23.302;2023-06-26T00:44:32;25.10;;;14.73;;
70071;SDS011;57434;42.794;23.302;2023-06-26T00:45:34;33.20;;;15.57;;
70071;SDS011;57434;42.794;23.302;2023-06-26T00:46:44;28.63;;;14.57;;
70071;SDS011;57434;42.794;23.302;2023-06-26T00:47:45;41.63;;;18.42;;
70071;SDS011;57434;42.794;23.302;2023-06-26T00:48:47;26.45;;;13.52;;
70071;SDS011;57434;42.794;23.302;2023-06-26T00:49:49;25.20;;;14.00;;
70071;SDS011;57434;42.794;23.302;2023-06-26T00:50:51;30.02;;;14.35;;
70071;SDS011;57434;42.794;23.302;2023-06-26T00:51:52;23.73;;;12.85;;
70071;SDS011;57434;42.794;23.302;2023-06-26T00:52:54;26.02;;;12.50;;
70071;SDS011;57434;42.794;23.302;2023-06-26T00:53:56;25.73;;;12.63;;
70071;SDS011;57434;42.794;23.302;2023-06-26T00:54:58;27.05;;;13.82;;
70071;SDS011;57434;42.794;23.302;2023-06-26T00:56:00;24.92;;;13.05;;
70071;SDS011;57434;42.794;23.302;2023-06-26T00:57:02;28.38;;;13.52;;
70071;SDS011;57434;42.794;23.302;2023-06-26T00:58:03;30.90;;;14.98;;
70071;SDS011;57434;42.794;23.302;2023-06-26T00:59:05;27.80;;;14.63;;
70071;SDS011;57434;42.794;23.302;2023-06-26T01:00:06;25.60;;;14.23;;
70071;SDS011;57434;42.794;23.302;2023-06-26T01:01:08;30.35;;;15.70;;
70071;SDS011;57434;42.794;23.302;2023-06-26T01:02:10;26.67;;;14.43;;
70071;SDS011;57434;42.794;23.302;2023-06-26T01:03:12;28.08;;;14.80;;
70071;SDS011;57434;42.794;23.302;2023-06-26T01:04:14;27.20;;;15.07;;
70071;SDS011;57434;42.794;23.302;2023-06-26T01:05:15;24.00;;;13.73;;
70071;SDS011;57434;42.794;23.302;2023-06-26T01:06:17;25.88;;;14.48;;
70071;SDS011;57434;42.794;23.302;2023-06-26T01:07:19;27.70;;;15.23;;
70071;SDS011;57434;42.794;23.302;2023-06-26T01:08:21;25.10;;;14.43;;
70071;SDS011;57434;42.794;23.302;2023-06-26T01:09:23;27.33;;;14.68;;
70071;SDS011;57434;42.794;23.302;2023-06-26T01:10:25;25.63;;;14.83;;
70071;SDS011;57434;42.794;23.302;2023-06-26T01:11:26;24.17;;;13.93;;
70071;SDS011;57434;42.794;23.302;2023-06-26T01:12:28;25.35;;;14.18;;
70071;SDS011;57434;42.794;23.302;2023-06-26T01:13:30;23.08;;;14.57;;
70071;SDS011;57434;42.794;23.302;2023-06-26T01:14:33;26.10;;;14.25;;
70071;SDS011;57434;42.794;23.302;2023-06-26T01:15:35;24.90;;;13.55;;
70071;SDS011;57434;42.794;23.302;2023-06-26T01:16:36;24.77;;;14.30;;
70071;SDS011;57434;42.794;23.302;2023-06-26T01:17:39;25.35;;;14.55;;
70071;SDS011;57434;42.794;23.302;2023-06-26T01:18:41;28.00;;;14.25;;
70071;SDS011;57434;42.794;23.302;2023-06-26T01:19:43;25.63;;;13.40;;
70071;SDS011;57434;42.794;23.302;2023-06-26T01:20:45;25.53;;;13.97;;
70071;SDS011;57434;42.794;23.302;2023-06-26T01:21:46;24.45;;;13.73;;
70071;SDS011;57434;42.794;23.302;2023-06-26T01:23:04;27.20;;;14.10;;
70071;SDS011;57434;42.794;23.302;2023-06-26T01:24:17;23.90;;;12.98;;
70071;SDS011;57434;42.794;23.302;2023-06-26T01:26:32;25.35;;;13.57;;
70071;SDS011;57434;42.794;23.302;2023-06-26T01:27:35;24.95;;;14.00;;
70071;SDS011;57434;42.794;23.302;2023-06-26T01:28:41;21.38;;;12.75;;
70071;SDS011;57434;42.794;23.302;2023-06-26T01:29:43;24.63;;;13.77;;
70071;SDS011;57434;42.794;23.302;2023-06-26T01:30:46;23.50;;;14.35;;
70071;SDS011;57434;42.794;23.302;2023-06-26T01:31:48;24.77;;;14.13;;
70071;SDS011;57434;42.794;23.302;2023-06-26T01:32:50;24.13;;;13.57;;
70071;SDS011;57434;42.794;23.302;2023-06-26T01:33:52;27.05;;;13.43;;
70071;SDS011;57434;42.794;23.302;2023-06-26T01:36:32;21.63;;;13.20;;
70071;SDS011;57434;42.794;23.302;2023-06-26T01:37:33;23.23;;;13.93;;
70071;SDS011;57434;42.794;23.302;2023-06-26T01:38:35;24.95;;;13.35;;
70071;SDS011;57434;42.794;23.302;2023-06-26T01:39:37;24.10;;;13.23;;
70071;SDS011;57434;42.794;23.302;2023-06-26T01:40:38;22.23;;;12.48;;
70071;SDS011;57434;42.794;23.302;2023-06-26T01:41:40;23.85;;;12.82;;
70071;SDS011;57434;42.794;23.302;2023-06-26T01:42:42;23.00;;;13.30;;
70071;SDS011;57434;42.794;23.302;2023-06-26T01:44:48;19.75;;;12.52;;
70071;SDS011;57434;42.794;23.302;2023-06-26T01:45:51;22.70;;;13.55;;
70071;SDS011;57434;42.794;23.302;2023-06-26T01:47:01;20.42;;;13.02;;
70071;SDS011;57434;42.794;23.302;2023-06-26T01:48:03;21.92;;;12.18;;
70071;SDS011;57434;42.794;23.302;2023-06-26T01:50:17;22.98;;;12.38;;
70071;SDS011;57434;42.794;23.302;2023-06-26T01:51:18;23.48;;;13.07;;
70071;SDS011;57434;42.794;23.302;2023-06-26T01:53:33;20.47;;;12.17;;
70071;SDS011;57434;42.794;23.302;2023-06-26T01:54:38;22.85;;;12.80;;
70071;SDS011;57434;42.794;23.302;2023-06-26T01:55:58;20.08;;;12.27;;
70071;SDS011;57434;42.794;23.302;2023-06-26T01:57:01;21.48;;;12.10;;
70071;SDS011;57434;42.794;23.302;2023-06-26T01:58:02;20.17;;;12.50;;
70071;SDS011;57434;42.794;23.302;2023-06-26T01:59:04;21.00;;;11.57;;
70071;SDS011;57434;42.794;23.302;2023-06-26T02:00:06;19.70;;;11.40;;
70071;SDS011;57434;42.794;23.302;2023-06-26T02:02:59;19.65;;;11.85;;
70071;SDS011;57434;42.794;23.302;2023-06-26T02:04:02;19.77;;;11.30;;
70071;SDS011;57434;42.794;23.302;2023-06-26T02:05:03;21.50;;;12.50;;
70071;SDS011;57434;42.794;23.302;2023-06-26T02:06:05;23.75;;;12.02;;
70071;SDS011;57434;42.794;23.302;2023-06-26T02:07:06;20.58;;;12.45;;
70071;SDS011;57434;42.794;23.302;2023-06-26T02:08:08;18.17;;;11.88;;
70071;SDS011;57434;42.794;23.302;2023-06-26T02:09:10;22.73;;;11.82;;
70071;SDS011;57434;42.794;23.302;2023-06-26T02:10:12;18.17;;;11.27;;
70071;SDS011;57434;42.794;23.302;2023-06-26T02:11:13;16.88;;;11.38;;
70071;SDS011;57434;42.794;23.302;2023-06-26T02:12:15;18.65;;;11.10;;
70071;SDS011;57434;42.794;23.302;2023-06-26T02:13:16;20.55;;;11.30;;
70071;SDS011;57434;42.794;23.302;2023-06-26T02:14:18;17.67;;;11.63;;
70071;SDS011;57434;42.794;23.302;2023-06-26T02:15:19;23.63;;;11.83;;
70071;SDS011;57434;42.794;23.302;2023-06-26T02:16:21;18.40;;;10.95;;
70071;SDS011;57434;42.794;23.302;2023-06-26T02:17:22;23.23;;;11.02;;
70071;SDS011;57434;42.794;23.302;2023-06-26T02:18:24;21.92;;;11.63;;
70071;SDS011;57434;42.794;23.302;2023-06-26T02:19:26;16.85;;;10.45;;
70071;SDS011;57434;42.794;23.302;2023-06-26T02:20:27;17.95;;;11.30;;
70071;SDS011;57434;42.794;23.302;2023-06-26T02:21:29;20.85;;;11.65;;
70071;SDS011;57434;42.794;23.302;2023-06-26T02:22:30;17.85;;;11.50;;
70071;SDS011;57434;42.794;23.302;2023-06-26T02:23:32;22.92;;;11.85;;
70071;SDS011;57434;42.794;23.302;2023-06-26T02:24:33;18.20;;;11.43;;
70071;SDS011;57434;42.794;23.302;2023-06-26T02:25:35;20.80;;;11.30;;
70071;SDS011;57434;42.794;23.302;2023-06-26T02:26:37;20.08;;;10.95;;
70071;SDS011;57434;42.794;23.302;2023-06-26T02:27:38;20.48;;;11.93;;
70071;SDS011;57434;42.794;23.302;2023-06-26T02:28:40;15.55;;;10.43;;
70071;SDS011;57434;42.794;23.302;2023-06-26T02:29:41;17.00;;;11.75;;
70071;SDS011;57434;42.794;23.302;2023-06-26T02:30:43;19.15;;;11.10;;
70071;SDS011;57434;42.794;23.302;2023-06-26T02:31:45;20.65;;;11.50;;
70071;SDS011;57434;42.794;23.302;2023-06-26T02:32:46;18.80;;;11.55;;
70071;SDS011;57434;42.794;23.302;2023-06-26T02:33:48;21.60;;;12.60;;
70071;SDS011;57434;42.794;23.302;2023-06-26T02:34:49;25.90;;;12.75;;
70071;SDS011;57434;42.794;23.302;2023-06-26T02:35:51;21.83;;;13.07;;
70071;SDS011;57434;42.794;23.302;2023-06-26T02:36:53;23.58;;;12.93;;
70071;SDS011;57434;42.794;23.302;2023-06-26T02:37:54;21.83;;;12.52;;
70071;SDS011;57434;42.794;23.302;2023-06-26T02:38:56;22.17;;;13.18;;
70071;SDS011;57434;42.794;23.302;2023-06-26T02:39:57;23.65;;;13.75;;
70071;SDS011;57434;42.794;23.302;2023-06-26T02:40:59;22.30;;;12.25;;
70071;SDS011;57434;42.794;23.302;2023-06-26T02:42:00;23.50;;;12.30;;
70071;SDS011;57434;42.794;23.302;2023-06-26T02:43:02;19.90;;;11.77;;
70071;SDS011;57434;42.794;23.302;2023-06-26T02:44:03;21.77;;;12.38;;
70071;SDS011;57434;42.794;23.302;2023-06-26T02:45:05;20.98;;;12.80;;
70071;SDS011;57434;42.794;23.302;2023-06-26T02:46:07;20.17;;;12.40;;
70071;SDS011;57434;42.794;23.302;2023-06-26T02:47:09;20.50;;;11.85;;
70071;SDS011;57434;42.794;23.302;2023-06-26T02:48:11;22.63;;;11.88;;
70071;SDS011;57434;42.794;23.302;2023-06-26T02:49:12;20.27;;;12.23;;
70071;SDS011;57434;42.794;23.302;2023-06-26T02:50:14;22.35;;;11.77;;
70071;SDS011;57434;42.794;23.302;2023-06-26T02:51:15;20.27;;;11.38;;
70071;SDS011;57434;42.794;23.302;2023-06-26T02:52:17;20.63;;;11.70;;
70071;SDS011;57434;42.794;23.302;2023-06-26T02:53:18;21.52;;;11.50;;
70071;SDS011;57434;42.794;23.302;2023-06-26T02:54:20;20.52;;;11.43;;
70071;SDS011;57434;42.794;23.302;2023-06-26T02:55:21;22.20;;;11.23;;
70071;SDS011;57434;42.794;23.302;2023-06-26T02:56:23;18.47;;;11.13;;
70071;SDS011;57434;42.794;23.302;2023-06-26T02:57:25;18.52;;;11.38;;
70071;SDS011;57434;42.794;23.302;2023-06-26T02:58:26;19.73;;;10.82;;
70071;SDS011;57434;42.794;23.302;2023-06-26T02:59:28;21.23;;;11.38;;
70071;SDS011;57434;42.794;23.302;2023-06-26T03:00:30;22.52;;;11.75;;
70071;SDS011;57434;42.794;23.302;2023-06-26T03:01:31;20.67;;;12.05;;
70071;SDS011;57434;42.794;23.302;2023-06-26T03:02:33;19.25;;;11.27;;
70071;SDS011;57434;42.794;23.302;2023-06-26T03:03:35;18.75;;;11.10;;
70071;SDS011;57434;42.794;23.302;2023-06-26T03:04:36;25.08;;;12.63;;
70071;SDS011;57434;42.794;23.302;2023-06-26T03:05:38;22.27;;;11.55;;
70071;SDS011;57434;42.794;23.302;2023-06-26T03:06:40;19.50;;;11.90;;
70071;SDS011;57434;42.794;23.302;2023-06-26T03:07:41;22.67;;;11.80;;
70071;SDS011;57434;42.794;23.302;2023-06-26T03:08:43;20.60;;;12.35;;
70071;SDS011;57434;42.794;23.302;2023-06-26T03:09:44;19.13;;;11.65;;
70071;SDS011;57434;42.794;23.302;2023-06-26T03:10:46;17.98;;;11.00;;
70071;SDS011;57434;42.794;23.302;2023-06-26T03:11:47;20.05;;;11.75;;
70071;SDS011;57434;42.794;23.302;2023-06-26T03:12:49;19.85;;;11.30;;
70071;SDS011;57434;42.794;23.302;2023-06-26T03:13:51;22.35;;;12.15;;
70071;SDS011;57434;42.794;23.302;2023-06-26T03:14:52;20.83;;;11.68;;
70071;SDS011;57434;42.794;23.302;2023-06-26T03:15:54;21.10;;;11.85;;
70071;SDS011;57434;42.794;23.302;2023-06-26T03:16:55;21.33;;;12.87;;
70071;SDS011;57434;42.794;23.302;2023-06-26T03:17:57;20.27;;;12.38;;
70071;SDS011;57434;42.794;23.302;2023-06-26T03:18:59;20.20;;;11.60;;
70071;SDS011;57434;42.794;23.302;2023-06-26T03:20:00;20.95;;;12.13;;
70071;SDS011;57434;42.794;23.302;2023-06-26T03:21:02;19.30;;;11.75;;
70071;SDS011;57434;42.794;23.302;2023-06-26T03:22:03;19.00;;;12.23;;
70071;SDS011;57434;42.794;23.302;2023-06-26T03:23:05;22.33;;;12.77;;
70071;SDS011;57434;42.794;23.302;2023-06-26T03:24:07;20.40;;;13.15;;
70071;SDS011;57434;42.794;23.302;2023-06-26T03:25:08;20.20;;;12.75;;
70071;SDS011;57434;42.794;23.302;2023-06-26T03:26:10;20.35;;;12.88;;
70071;SDS011;57434;42.794;23.302;2023-06-26T03:27:11;21.53;;;12.43;;
70071;SDS011;57434;42.794;23.302;2023-06-26T03:28:13;19.75;;;12.77;;
70071;SDS011;57434;42.794;23.302;2023-06-26T03:29:14;20.75;;;12.65;;
70071;SDS011;57434;42.794;23.302;2023-06-26T03:30:16;20.65;;;12.55;;
70071;SDS011;57434;42.794;23.302;2023-06-26T03:31:17;21.52;;;12.35;;
70071;SDS011;57434;42.794;23.302;2023-06-26T03:32:19;21.38;;;12.75;;
70071;SDS011;57434;42.794;23.302;2023-06-26T03:33:21;20.40;;;12.60;;
70071;SDS011;57434;42.794;23.302;2023-06-26T03:34:22;22.10;;;12.45;;
70071;SDS011;57434;42.794;23.302;2023-06-26T03:35:24;22.67;;;13.13;;
70071;SDS011;57434;42.794;23.302;2023-06-26T03:36:25;19.35;;;12.63;;
70071;SDS011;57434;42.794;23.302;2023-06-26T03:37:27;20.00;;;13.33;;
70071;SDS011;57434;42.794;23.302;2023-06-26T03:38:28;20.58;;;13.38;;
70071;SDS011;57434;42.794;23.302;2023-06-26T03:39:30;21.27;;;13.45;;
70071;SDS011;57434;42.794;23.302;2023-06-26T03:40:32;24.83;;;14.82;;
70071;SDS011;57434;42.794;23.302;2023-06-26T03:41:33;22.88;;;15.10;;
70071;SDS011;57434;42.794;23.302;2023-06-26T03:42:35;22.45;;;14.43;;
70071;SDS011;57434;42.794;23.302;2023-06-26T03:43:36;26.77;;;14.88;;
70071;SDS011;57434;42.794;23.302;2023-06-26T03:44:38;24.70;;;14.07;;
70071;SDS011;57434;42.794;23.302;2023-06-26T03:45:39;24.50;;;13.85;;
70071;SDS011;57434;42.794;23.302;2023-06-26T03:46:41;27.33;;;13.20;;
70071;SDS011;57434;42.794;23.302;2023-06-26T03:47:43;22.83;;;13.43;;
70071;SDS011;57434;42.794;23.302;2023-06-26T03:48:44;22.10;;;13.68;;
70071;SDS011;57434;42.794;23.302;2023-06-26T03:49:46;21.27;;;13.48;;
70071;SDS011;57434;42.794;23.302;2023-06-26T03:50:47;21.38;;;13.40;;
70071;SDS011;57434;42.794;23.302;2023-06-26T03:51:49;22.80;;;14.32;;
70071;SDS011;57434;42.794;23.302;2023-06-26T03:52:51;26.42;;;14.07;;
70071;SDS011;57434;42.794;23.302;2023-06-26T03:53:52;23.58;;;14.55;;
70071;SDS011;57434;42.794;23.302;2023-06-26T03:54:54;22.83;;;14.02;;
70071;SDS011;57434;42.794;23.302;2023-06-26T03:55:55;20.13;;;13.32;;
70071;SDS011;57434;42.794;23.302;2023-06-26T03:56:57;18.63;;;13.07;;
70071;SDS011;57434;42.794;23.302;2023-06-26T03:57:58;27.30;;;14.33;;
70071;SDS011;57434;42.794;23.302;2023-06-26T03:59:00;21.52;;;13.00;;
70071;SDS011;57434;42.794;23.302;2023-06-26T04:00:02;20.98;;;13.40;;
70071;SDS011;57434;42.794;23.302;2023-06-26T04:01:04;20.35;;;12.90;;
70071;SDS011;57434;42.794;23.302;2023-06-26T04:02:05;18.83;;;11.43;;
70071;SDS011;57434;42.794;23.302;2023-06-26T04:03:07;20.25;;;10.57;;
70071;SDS011;57434;42.794;23.302;2023-06-26T04:04:08;18.73;;;10.90;;
70071;SDS011;57434;42.794;23.302;2023-06-26T04:05:10;16.95;;;10.32;;
70071;SDS011;57434;42.794;23.302;2023-06-26T04:06:12;19.15;;;11.45;;
70071;SDS011;57434;42.794;23.302;2023-06-26T04:07:13;18.73;;;10.35;;
70071;SDS011;57434;42.794;23.302;2023-06-26T04:08:15;18.27;;;10.80;;
70071;SDS011;57434;42.794;23.302;2023-06-26T04:09:16;20.40;;;11.73;;
70071;SDS011;57434;42.794;23.302;2023-06-26T04:10:18;20.58;;;11.50;;
70071;SDS011;57434;42.794;23.302;2023-06-26T04:11:19;20.73;;;11.48;;
70071;SDS011;57434;42.794;23.302;2023-06-26T04:12:21;19.67;;;11.50;;
70071;SDS011;57434;42.794;23.302;2023-06-26T04:13:25;17.75;;;11.10;;
70071;SDS011;57434;42.794;23.302;2023-06-26T04:14:27;18.80;;;11.70;;
70071;SDS011;57434;42.794;23.302;2023-06-26T04:15:28;19.30;;;11.65;;
70071;SDS011;57434;42.794;23.302;2023-06-26T04:16:30;20.38;;;11.57;;
70071;SDS011;57434;42.794;23.302;2023-06-26T04:17:31;18.85;;;12.30;;
70071;SDS011;57434;42.794;23.302;2023-06-26T04:18:33;19.87;;;12.10;;
70071;SDS011;57434;42.794;23.302;2023-06-26T04:19:35;21.42;;;12.20;;
70071;SDS011;57434;42.794;23.302;2023-06-26T04:20:41;24.17;;;14.00;;
70071;SDS011;57434;42.794;23.302;2023-06-26T04:21:43;19.52;;;12.60;;
70071;SDS011;57434;42.794;23.302;2023-06-26T04:22:44;18.02;;;11.40;;
70071;SDS011;57434;42.794;23.302;2023-06-26T04:23:46;20.38;;;12.57;;
70071;SDS011;57434;42.794;23.302;2023-06-26T04:24:48;21.25;;;13.20;;
70071;SDS011;57434;42.794;23.302;2023-06-26T04:25:49;20.23;;;12.32;;
70071;SDS011;57434;42.794;23.302;2023-06-26T04:26:51;20.63;;;12.57;;
70071;SDS011;57434;42.794;23.302;2023-06-26T04:27:52;21.10;;;12.23;;
70071;SDS011;57434;42.794;23.302;2023-06-26T04:28:54;19.10;;;12.43;;
70071;SDS011;57434;42.794;23.302;2023-06-26T04:29:55;24.00;;;14.20;;
70071;SDS011;57434;42.794;23.302;2023-06-26T04:30:57;25.23;;;13.95;;
70071;SDS011;57434;42.794;23.302;2023-06-26T04:31:59;23.15;;;13.68;;
70071;SDS011;57434;42.794;23.302;2023-06-26T04:33:00;20.25;;;13.20;;
70071;SDS011;57434;42.794;23.302;2023-06-26T04:34:02;21.70;;;14.18;;
70071;SDS011;57434;42.794;23.302;2023-06-26T04:35:04;21.88;;;14.13;;
70071;SDS011;57434;42.794;23.302;2023-06-26T04:36:05;21.05;;;14.05;;
70071;SDS011;57434;42.794;23.302;2023-06-26T04:37:07;25.63;;;14.38;;
70071;SDS011;57434;42.794;23.302;2023-06-26T04:38:09;23.63;;;13.77;;
70071;SDS011;57434;42.794;23.302;2023-06-26T04:39:10;22.83;;;15.13;;
70071;SDS011;57434;42.794;23.302;2023-06-26T04:40:12;24.13;;;14.63;;
70071;SDS011;57434;42.794;23.302;2023-06-26T04:41:13;22.15;;;14.70;;
70071;SDS011;57434;42.794;23.302;2023-06-26T04:42:15;21.38;;;14.65;;
70071;SDS011;57434;42.794;23.302;2023-06-26T04:43:16;23.08;;;15.07;;
70071;SDS011;57434;42.794;23.302;2023-06-26T04:44:18;24.33;;;14.68;;
70071;SDS011;57434;42.794;23.302;2023-06-26T04:45:19;24.15;;;16.10;;
70071;SDS011;57434;42.794;23.302;2023-06-26T04:46:21;22.70;;;15.30;;
70071;SDS011;57434;42.794;23.302;2023-06-26T04:47:23;23.95;;;15.00;;
70071;SDS011;57434;42.794;23.302;2023-06-26T04:48:24;23.23;;;15.38;;
70071;SDS011;57434;42.794;23.302;2023-06-26T04:49:26;21.83;;;14.67;;
70071;SDS011;57434;42.794;23.302;2023-06-26T04:50:27;25.35;;;14.93;;
70071;SDS011;57434;42.794;23.302;2023-06-26T04:51:29;26.88;;;15.43;;
70071;SDS011;57434;42.794;23.302;2023-06-26T04:52:31;25.08;;;15.32;;
70071;SDS011;57434;42.794;23.302;2023-06-26T04:53:32;23.90;;;15.63;;
70071;SDS011;57434;42.794;23.302;2023-06-26T04:54:34;24.02;;;15.90;;
70071;SDS011;57434;42.794;23.302;2023-06-26T04:55:35;22.65;;;15.48;;
70071;SDS011;57434;42.794;23.302;2023-06-26T04:56:40;22.90;;;14.95;;
70071;SDS011;57434;42.794;23.302;2023-06-26T04:57:41;23.15;;;14.57;;
70071;SDS011;57434;42.794;23.302;2023-06-26T04:58:43;24.13;;;14.70;;
70071;SDS011;57434;42.794;23.302;2023-06-26T04:59:45;23.40;;;14.63;;
70071;SDS011;57434;42.794;23.302;2023-06-26T05:00:46;22.80;;;14.82;;
70071;SDS011;57434;42.794;23.302;2023-06-26T05:01:48;23.48;;;15.20;;
70071;SDS011;57434;42.794;23.302;2023-06-26T05:02:50;22.27;;;15.52;;
70071;SDS011;57434;42.794;23.302;2023-06-26T05:03:52;21.05;;;14.20;;
70071;SDS011;57434;42.794;23.302;2023-06-26T05:04:54;21.45;;;13.63;;
70071;SDS011;57434;42.794;23.302;2023-06-26T05:05:55;22.35;;;14.25;;
70071;SDS011;57434;42.794;23.302;2023-06-26T05:06:57;23.77;;;15.50;;
70071;SDS011;57434;42.794;23.302;2023-06-26T05:07:59;26.67;;;15.25;;
70071;SDS011;57434;42.794;23.302;2023-06-26T05:09:14;22.90;;;14.00;;
70071;SDS011;57434;42.794;23.302;2023-06-26T05:10:15;21.60;;;14.50;;
70071;SDS011;57434;42.794;23.302;2023-06-26T05:11:17;23.92;;;15.23;;
70071;SDS011;57434;42.794;23.302;2023-06-26T05:12:18;24.20;;;15.68;;
70071;SDS011;57434;42.794;23.302;2023-06-26T05:13:20;26.77;;;16.33;;
70071;SDS011;57434;42.794;23.302;2023-06-26T05:14:22;25.40;;;16.20;;
70071;SDS011;57434;42.794;23.302;2023-06-26T05:15:25;23.38;;;15.65;;
70071;SDS011;57434;42.794;23.302;2023-06-26T05:16:27;26.85;;;15.48;;
70071;SDS011;57434;42.794;23.302;2023-06-26T05:17:28;24.52;;;15.30;;
70071;SDS011;57434;42.794;23.302;2023-06-26T05:18:30;24.48;;;15.45;;
70071;SDS011;57434;42.794;23.302;2023-06-26T05:19:32;24.23;;;15.00;;
70071;SDS011;57434;42.794;23.302;2023-06-26T05:20:34;23.33;;;15.57;;
70071;SDS011;57434;42.794;23.302;2023-06-26T05:21:36;23.45;;;15.30;;
70071;SDS011;57434;42.794;23.302;2023-06-26T05:22:37;23.60;;;15.40;;
70071;SDS011;57434;42.794;23.302;2023-06-26T05:23:40;24.45;;;15.00;;
70071;SDS011;57434;42.794;23.302;2023-06-26T05:24:42;24.35;;;14.93;;
70071;SDS011;57434;42.794;23.302;2023-06-26T05:25:46;23.33;;;14.82;;
70071;SDS011;57434;42.794;23.302;2023-06-26T05:26:48;25.45;;;15.05;;
70071;SDS011;57434;42.794;23.302;2023-06-26T05:27:50;24.90;;;15.20;;
70071;SDS011;57434;42.794;23.302;2023-06-26T05:28:52;22.58;;;15.57;;
70071;SDS011;57434;42.794;23.302;2023-06-26T05:29:54;22.55;;;14.40;;
70071;SDS011;57434;42.794;23.302;2023-06-26T05:30:56;22.97;;;13.63;;
70071;SDS011;57434;42.794;23.302;2023-06-26T05:31:58;23.10;;;14.52;;
70071;SDS011;57434;42.794;23.302;2023-06-26T05:32:59;20.98;;;13.77;;
70071;SDS011;57434;42.794;23.302;2023-06-26T05:34:02;21.55;;;14.73;;
70071;SDS011;57434;42.794;23.302;2023-06-26T05:35:04;21.98;;;13.57;;
70071;SDS011;57434;42.794;23.302;2023-06-26T05:36:06;19.90;;;13.35;;
70071;SDS011;57434;42.794;23.302;2023-06-26T05:37:08;22.67;;;14.05;;
70071;SDS011;57434;42.794;23.302;2023-06-26T05:38:10;22.33;;;14.00;;
70071;SDS011;57434;42.794;23.302;2023-06-26T05:39:12;20.90;;;14.60;;
70071;SDS011;57434;42.794;23.302;2023-06-26T05:40:14;23.02;;;14.25;;
70071;SDS011;57434;42.794;23.302;2023-06-26T05:41:16;23.30;;;14.37;;
70071;SDS011;57434;42.794;23.302;2023-06-26T05:42:17;21.20;;;14.10;;
70071;SDS011;57434;42.794;23.302;2023-06-26T05:43:19;19.40;;;13.25;;
70071;SDS011;57434;42.794;23.302;2023-06-26T05:44:26;19.10;;;12.30;;
70071;SDS011;57434;42.794;23.302;2023-06-26T05:45:27;19.05;;;12.05;;
70071;SDS011;57434;42.794;23.302;2023-06-26T05:46:29;19.35;;;11.63;;
70071;SDS011;57434;42.794;23.302;2023-06-26T05:47:30;16.98;;;11.45;;
70071;SDS011;57434;42.794;23.302;2023-06-26T05:48:32;16.73;;;12.15;;
70071;SDS011;57434;42.794;23.302;2023-06-26T05:49:34;17.98;;;11.77;;
70071;SDS011;57434;42.794;23.302;2023-06-26T05:50:36;17.40;;;11.75;;
70071;SDS011;57434;42.794;23.302;2023-06-26T05:51:38;17.70;;;11.73;;
70071;SDS011;57434;42.794;23.302;2023-06-26T05:52:40;16.85;;;11.13;;
70071;SDS011;57434;42.794;23.302;2023-06-26T05:53:42;17.05;;;11.00;;
70071;SDS011;57434;42.794;23.302;2023-06-26T05:54:43;17.13;;;11.75;;
70071;SDS011;57434;42.794;23.302;2023-06-26T05:55:45;17.13;;;11.52;;
70071;SDS011;57434;42.794;23.302;2023-06-26T05:56:47;18.35;;;10.73;;
70071;SDS011;57434;42.794;23.302;2023-06-26T05:57:49;15.20;;;10.55;;
70071;SDS011;57434;42.794;23.302;2023-06-26T05:58:52;15.10;;;10.32;;
70071;SDS011;57434;42.794;23.302;2023-06-26T05:59:54;16.17;;;10.85;;
70071;SDS011;57434;42.794;23.302;2023-06-26T06:00:55;15.23;;;10.55;;
70071;SDS011;57434;42.794;23.302;2023-06-26T06:01:57;15.00;;;10.07;;
70071;SDS011;57434;42.794;23.302;2023-06-26T06:02:59;15.30;;;10.40;;
70071;SDS011;57434;42.794;23.302;2023-06-26T06:04:00;15.38;;;10.65;;
70071;SDS011;57434;42.794;23.302;2023-06-26T06:05:02;18.42;;;9.85;;